Terminal Aerodrome Forecast
Issued by NWS

Home | Current Version | Previous Version | Text Only | Print | Product List | Glossary On
Versions: 1 2 3 4 5 6 7 8 9 10 11 12 13 14 15 16 17 18 19 20 21 22 23 24 25 26 27 28 29 30 31
000
FTUS41 KRLX 191246 CCA
TAFCKB
TAF COR
KCKB 191246Z 1913/2012 27013G27KT P6SM OVC030
      TEMPO 1913/1916 -SHRA OVC015
     FM191700 31011G19KT P6SM VCSH OVC025
     FM192200 31012G20KT P6SM BKN040
     FM200200 32007KT P6SM SCT060=

USA.gov is the U.S. government's official web portal to all federal, state and local government web resources and services.